createdAt,value
2019-04-04T00:00:50.860Z,99698.00
2019-04-04T00:03:21.184Z,99688.00
2019-04-04T00:05:51.386Z,99686.00
2019-04-04T00:08:20.893Z,99683.00
2019-04-04T00:10:50.430Z,99678.00
2019-04-04T00:13:19.864Z,99672.00
2019-04-04T00:15:49.338Z,99664.00
2019-04-04T00:18:18.812Z,99658.00
2019-04-04T00:20:48.206Z,99678.00
2019-04-04T00:23:17.686Z,99681.00
2019-04-04T00:25:47.142Z,99679.00
2019-04-04T00:28:16.590Z,99662.00
2019-04-04T00:30:48.263Z,99661.00
2019-04-04T00:33:17.176Z,99658.00
2019-04-04T00:35:46.634Z,99649.00
2019-04-04T00:38:16.102Z,99644.00
2019-04-04T00:40:45.504Z,99645.00
2019-04-04T00:43:14.975Z,99643.00
2019-04-04T00:45:44.589Z,99636.00
2019-04-04T00:48:14.070Z,99657.00
2019-04-04T00:50:43.519Z,99653.00
2019-04-04T00:53:12.987Z,99651.00
2019-04-04T00:55:42.519Z,99638.00
2019-04-04T00:58:12.086Z,99648.00
2019-04-04T01:00:41.633Z,99650.00
2019-04-04T01:03:11.137Z,99655.00
2019-04-04T01:05:40.588Z,99678.00
2019-04-04T01:08:10.037Z,99672.00
2019-04-04T01:10:39.511Z,99686.00
2019-04-04T01:13:08.971Z,99685.00
2019-04-04T01:15:38.415Z,99688.00
2019-04-04T01:18:07.973Z,99677.00
2019-04-04T01:20:37.477Z,99674.00
2019-04-04T01:23:07.004Z,99661.00
2019-04-04T01:25:36.813Z,99660.00
2019-04-04T01:28:08.167Z,99651.00
2019-04-04T01:30:37.601Z,99643.00
2019-04-04T01:33:07.031Z,99632.00
2019-04-04T01:35:37.005Z,99642.00
2019-04-04T01:38:06.678Z,99630.00
2019-04-04T01:40:36.188Z,99625.00
2019-04-04T01:43:08.898Z,99628.00
2019-04-04T01:45:37.175Z,99637.00
2019-04-04T01:48:06.827Z,99638.00
2019-04-04T01:50:36.170Z,99645.00
2019-04-04T01:53:05.665Z,99637.00
2019-04-04T01:55:35.669Z,99644.00
2019-04-04T01:58:05.405Z,99645.00
2019-04-04T02:00:34.865Z,99640.00
2019-04-04T02:03:04.358Z,99635.00
2019-04-04T02:05:34.045Z,99630.00
2019-04-04T02:08:03.558Z,99619.00
2019-04-04T02:10:34.562Z,99622.00
2019-04-04T02:13:04.230Z,99607.00
2019-04-04T02:15:33.811Z,99608.00
2019-04-04T02:18:03.393Z,99609.00
2019-04-04T02:20:33.018Z,99610.00
2019-04-04T02:23:02.613Z,99602.00
2019-04-04T02:25:34.051Z,99604.00
2019-04-04T02:28:03.245Z,99608.00
2019-04-04T02:30:32.676Z,99593.00
2019-04-04T02:33:02.142Z,99571.00
2019-04-04T02:35:31.652Z,99573.00
2019-04-04T02:38:01.128Z,99575.00
2019-04-04T02:40:30.580Z,99580.00
2019-04-04T02:43:00.312Z,99574.00
2019-04-04T02:45:29.653Z,99570.00
2019-04-04T02:47:59.062Z,99569.00
2019-04-04T02:50:28.576Z,99578.00
2019-04-04T02:52:58.100Z,99580.00
2019-04-04T02:55:29.803Z,99577.00
2019-04-04T02:57:58.704Z,99569.00
2019-04-04T03:00:28.184Z,99568.00
2019-04-04T03:02:57.688Z,99565.00
2019-04-04T03:05:27.179Z,99565.00
2019-04-04T03:07:56.763Z,99567.00
2019-04-04T03:10:26.375Z,99570.00
2019-04-04T03:12:58.681Z,99579.00
2019-04-04T03:15:27.632Z,99583.00
2019-04-04T03:17:57.078Z,99587.00
2019-04-04T03:20:26.533Z,99575.00
2019-04-04T03:23:00.090Z,99573.00
2019-04-04T03:25:27.089Z,99563.00
2019-04-04T03:27:58.444Z,99574.00
2019-04-04T03:30:27.745Z,99574.00
2019-04-04T03:32:57.246Z,99579.00
2019-04-04T03:35:29.027Z,99580.00
2019-04-04T03:37:57.917Z,99586.00
2019-04-04T03:40:27.375Z,99584.00
2019-04-04T03:42:56.837Z,99587.00
2019-04-04T03:45:27.546Z,99594.00
2019-04-04T03:47:57.269Z,99589.00
2019-04-04T03:50:30.241Z,99570.00
2019-04-04T03:52:57.905Z,99568.00
2019-04-04T03:55:28.515Z,99567.00
2019-04-04T03:57:58.158Z,99571.00
2019-04-04T04:00:31.864Z,99582.00
2019-04-04T04:03:01.375Z,99581.00
2019-04-04T04:05:35.644Z,99582.00
2019-04-04T04:08:03.457Z,99585.00
2019-04-04T04:10:33.817Z,99579.00
2019-04-04T04:13:03.547Z,99597.00
2019-04-04T04:15:33.061Z,99584.00
2019-04-04T04:18:02.515Z,99581.00
2019-04-04T04:20:36.322Z,99575.00
2019-04-04T04:23:03.138Z,99581.00
2019-04-04T04:25:35.294Z,99577.00
2019-04-04T04:28:03.770Z,99589.00
2019-04-04T04:30:33.285Z,99569.00
2019-04-04T04:33:02.718Z,99571.00
2019-04-04T04:35:32.199Z,99561.00
2019-04-04T04:38:01.672Z,99556.00
2019-04-04T04:40:31.115Z,99564.00
2019-04-04T04:43:01.042Z,99545.00
2019-04-04T04:45:30.607Z,99548.00
2019-04-04T04:48:00.078Z,99546.00
2019-04-04T04:50:29.546Z,99539.00
2019-04-04T04:52:59.003Z,99537.00
2019-04-04T04:55:28.448Z,99556.00
2019-04-04T04:57:57.946Z,99553.00
2019-04-04T05:00:28.072Z,99551.00
2019-04-04T05:02:57.687Z,99546.00
2019-04-04T05:05:27.137Z,99555.00
2019-04-04T05:07:56.601Z,99547.00
2019-04-04T05:10:26.072Z,99552.00
2019-04-04T05:12:55.554Z,99553.00
2019-04-04T05:15:24.999Z,99548.00
2019-04-04T05:17:54.416Z,99544.00
2019-04-04T05:20:25.225Z,99565.00
2019-04-04T05:22:55.252Z,99550.00
2019-04-04T05:25:24.810Z,99555.00
2019-04-04T05:27:54.198Z,99572.00
2019-04-04T05:30:23.660Z,99574.00
2019-04-04T05:32:56.226Z,99571.00
2019-04-04T05:35:24.295Z,99574.00
2019-04-04T05:37:53.752Z,99573.00
2019-04-04T05:40:24.167Z,99582.00
2019-04-04T05:42:53.703Z,99584.00
2019-04-04T05:45:23.153Z,99592.00
2019-04-04T05:47:54.957Z,99588.00
2019-04-04T05:50:23.916Z,99592.00
2019-04-04T05:52:53.385Z,99583.00
2019-04-04T05:55:22.863Z,99584.00
2019-04-04T05:57:52.423Z,99582.00
2019-04-04T06:00:22.084Z,99581.00
2019-04-04T06:02:51.572Z,99585.00
2019-04-04T06:05:21.009Z,99592.00
2019-04-04T06:07:50.459Z,99591.00
2019-04-04T06:10:19.940Z,99604.00
2019-04-04T06:12:49.419Z,99606.00
2019-04-04T06:15:18.845Z,99609.00
2019-04-04T06:17:48.311Z,99605.00
2019-04-04T06:20:17.984Z,99610.00
2019-04-04T06:22:47.511Z,99616.00
2019-04-04T06:25:16.975Z,99627.00
2019-04-04T06:27:46.478Z,99637.00
2019-04-04T06:30:16.147Z,99639.00
2019-04-04T06:32:45.636Z,99629.00
2019-04-04T06:35:15.425Z,99623.00
2019-04-04T06:37:46.234Z,99627.00
2019-04-04T06:40:16.203Z,99627.00
2019-04-04T06:42:45.652Z,99627.00
2019-04-04T06:45:16.069Z,99638.00
2019-04-04T06:47:45.735Z,99642.00
2019-04-04T06:50:15.441Z,99630.00
2019-04-04T06:52:44.948Z,99633.00
2019-04-04T06:55:14.720Z,99624.00
2019-04-04T06:57:44.210Z,99625.00
2019-04-04T07:00:15.933Z,99623.00
2019-04-04T07:02:47.325Z,99629.00
2019-04-04T07:05:16.907Z,99629.00
2019-04-04T07:07:46.487Z,99635.00
2019-04-04T07:10:16.087Z,99625.00
2019-04-04T07:12:45.633Z,99619.00
2019-04-04T07:15:16.040Z,99607.00
2019-04-04T07:17:45.768Z,99613.00
2019-04-04T07:20:16.998Z,99608.00
2019-04-04T07:22:46.942Z,99617.00
2019-04-04T07:25:16.516Z,99616.00
2019-04-04T07:27:47.426Z,99621.00
2019-04-04T07:30:17.430Z,99614.00
2019-04-04T07:32:47.015Z,99619.00
2019-04-04T07:35:17.180Z,99610.00
2019-04-04T07:37:47.184Z,99615.00
2019-04-04T07:40:16.859Z,99614.00
2019-04-04T07:42:48.019Z,99620.00
2019-04-04T07:45:17.759Z,99620.00
2019-04-04T07:47:47.781Z,99625.00
2019-04-04T07:50:17.375Z,99635.00
2019-04-04T07:52:46.820Z,99637.00
2019-04-04T07:55:16.279Z,99645.00
2019-04-04T07:57:45.779Z,99644.00
2019-04-04T08:00:15.555Z,99636.00
2019-04-04T08:02:45.015Z,99649.00
2019-04-04T08:05:14.665Z,99653.00
2019-04-04T08:07:44.183Z,99650.00
2019-04-04T08:10:20.523Z,99650.00
2019-04-04T08:12:45.371Z,99662.00
2019-04-04T08:15:14.872Z,99648.00
2019-04-04T08:17:44.593Z,99651.00
2019-04-04T08:20:14.341Z,99629.00
2019-04-04T08:22:43.978Z,99630.00
2019-04-04T08:25:13.595Z,99640.00
2019-04-04T08:27:43.077Z,99644.00
2019-04-04T08:30:12.727Z,99646.00
2019-04-04T08:32:42.213Z,99653.00
2019-04-04T08:35:11.896Z,99647.00
2019-04-04T08:37:41.394Z,99650.00
2019-04-04T08:40:11.765Z,99658.00
2019-04-04T08:42:41.205Z,99653.00
2019-04-04T08:45:10.947Z,99660.00
2019-04-04T08:47:40.511Z,99664.00
2019-04-04T08:50:10.189Z,99671.00
2019-04-04T08:52:39.735Z,99663.00
2019-04-04T08:55:09.629Z,99653.00
2019-04-04T08:57:39.197Z,99656.00
2019-04-04T09:00:09.865Z,99651.00
2019-04-04T09:02:39.494Z,99657.00
2019-04-04T09:05:12.384Z,99659.00
2019-04-04T09:07:40.552Z,99660.00
2019-04-04T09:10:10.611Z,99671.00
2019-04-04T09:12:40.167Z,99681.00
2019-04-04T09:15:10.371Z,99677.00
2019-04-04T09:17:40.054Z,99675.00
2019-04-04T09:20:10.017Z,99681.00
2019-04-04T09:22:40.777Z,99679.00
2019-04-04T09:25:11.186Z,99670.00
2019-04-04T09:27:40.751Z,99659.00
2019-04-04T09:30:11.415Z,99661.00
2019-04-04T09:32:40.957Z,99661.00
2019-04-04T09:35:11.206Z,99656.00
2019-04-04T09:37:40.738Z,99652.00
2019-04-04T09:40:10.689Z,99656.00
2019-04-04T09:42:40.176Z,99659.00
2019-04-04T09:45:11.881Z,99651.00
2019-04-04T09:47:41.479Z,99654.00
2019-04-04T09:50:13.077Z,99642.00
2019-04-04T09:52:42.692Z,99648.00
2019-04-04T09:55:12.655Z,99649.00
2019-04-04T09:57:42.204Z,99654.00
2019-04-04T10:00:14.931Z,99668.00
2019-04-04T10:02:44.799Z,99680.00
2019-04-04T10:05:16.202Z,99672.00
2019-04-04T10:07:45.776Z,99681.00
2019-04-04T10:10:17.517Z,99672.00
2019-04-04T10:12:47.082Z,99678.00
2019-04-04T10:15:17.468Z,99676.00
2019-04-04T10:17:49.372Z,99677.00
2019-04-04T10:20:18.528Z,99675.00
2019-04-04T10:22:48.118Z,99684.00
2019-04-04T10:25:17.611Z,99686.00
2019-04-04T10:27:47.105Z,99697.00
2019-04-04T10:30:17.641Z,99684.00
2019-04-04T10:32:47.109Z,99677.00
2019-04-04T10:35:16.601Z,99666.00
2019-04-04T10:37:46.110Z,99659.00
2019-04-04T10:40:15.879Z,99657.00
2019-04-04T10:42:45.431Z,99658.00
2019-04-04T10:45:15.077Z,99647.00
2019-04-04T10:47:44.590Z,99652.00
2019-04-04T10:50:14.939Z,99636.00
2019-04-04T10:52:44.528Z,99648.00
2019-04-04T10:55:14.751Z,99642.00
2019-04-04T10:57:44.256Z,99645.00
2019-04-04T11:00:15.062Z,99636.00
2019-04-04T11:02:44.723Z,99632.00
2019-04-04T11:05:17.081Z,99631.00
2019-04-04T11:07:45.893Z,99630.00
2019-04-04T11:10:15.907Z,99637.00
2019-04-04T11:12:45.455Z,99634.00
2019-04-04T11:15:15.060Z,99632.00
2019-04-04T11:17:44.550Z,99641.00
2019-04-04T11:20:14.211Z,99647.00
2019-04-04T11:22:43.681Z,99648.00
2019-04-04T11:25:13.596Z,99662.00
2019-04-04T11:27:43.067Z,99673.00
2019-04-04T11:30:13.344Z,99679.00
2019-04-04T11:32:42.880Z,99678.00
2019-04-04T11:35:12.543Z,99684.00
2019-04-04T11:37:42.107Z,99695.00
2019-04-04T11:40:13.405Z,99697.00
2019-04-04T11:42:42.988Z,99706.00
2019-04-04T11:45:12.669Z,99702.00
2019-04-04T11:47:42.117Z,99708.00
2019-04-04T11:50:12.514Z,99706.00
2019-04-04T11:52:42.018Z,99704.00
2019-04-04T11:55:11.527Z,99715.00
2019-04-04T11:57:41.029Z,99729.00
2019-04-04T12:00:12.729Z,99727.00
2019-04-04T12:02:42.203Z,99729.00
2019-04-04T12:05:11.901Z,99735.00
2019-04-04T12:07:41.351Z,99728.00
2019-04-04T12:10:12.340Z,99720.00
2019-04-04T12:12:41.882Z,99721.00
2019-04-04T12:15:11.764Z,99720.00
2019-04-04T12:17:41.220Z,99740.00
2019-04-04T12:20:11.475Z,99745.00
2019-04-04T12:22:40.931Z,99742.00
2019-04-04T12:25:11.013Z,99744.00
2019-04-04T12:27:40.539Z,99743.00
2019-04-04T12:30:11.214Z,99752.00
2019-04-04T12:32:40.704Z,99749.00
2019-04-04T12:35:10.793Z,99738.00
2019-04-04T12:37:40.387Z,99746.00
2019-04-04T12:40:20.329Z,99751.00
2019-04-04T12:42:42.538Z,99749.00
2019-04-04T12:45:12.582Z,99747.00
2019-04-04T12:47:42.198Z,99747.00
2019-04-04T12:50:12.480Z,99752.00
2019-04-04T12:52:41.997Z,99741.00
2019-04-04T12:55:11.742Z,99739.00
2019-04-04T12:57:41.230Z,99737.00
2019-04-04T13:00:11.493Z,99726.00
2019-04-04T13:02:41.113Z,99725.00
2019-04-04T13:05:11.228Z,99738.00
2019-04-04T13:07:40.814Z,99731.00
2019-04-04T13:10:12.263Z,99733.00
2019-04-04T13:12:42.057Z,99738.00
2019-04-04T13:15:11.985Z,99736.00
2019-04-04T13:17:41.464Z,99736.00
2019-04-04T13:20:11.882Z,99740.00
2019-04-04T13:22:41.419Z,99740.00
2019-04-04T13:25:11.034Z,99750.00
2019-04-04T13:27:40.607Z,99755.00
2019-04-04T13:30:14.007Z,99757.00
2019-04-04T13:32:43.528Z,99770.00
2019-04-04T13:35:13.353Z,99785.00
2019-04-04T13:37:42.800Z,99781.00
2019-04-04T13:40:12.687Z,99788.00
2019-04-04T13:42:42.156Z,99788.00
2019-04-04T13:45:12.053Z,99800.00
2019-04-04T13:47:41.593Z,99806.00
2019-04-04T13:50:12.621Z,99804.00
2019-04-04T13:52:42.408Z,99800.00
2019-04-04T13:55:13.391Z,99812.00
2019-04-04T13:57:42.915Z,99809.00
2019-04-04T14:00:13.636Z,99804.00
2019-04-04T14:02:43.120Z,99802.00
2019-04-04T14:05:14.459Z,99811.00
2019-04-04T14:07:45.961Z,99806.00
2019-04-04T14:10:17.571Z,99802.00
2019-04-04T14:12:47.437Z,99788.00
2019-04-04T14:15:17.458Z,99796.00
2019-04-04T14:17:47.208Z,99826.00
2019-04-04T14:20:16.900Z,99839.00
2019-04-04T14:22:47.755Z,99828.00
2019-04-04T14:25:17.591Z,99824.00
2019-04-04T14:27:47.098Z,99820.00
2019-04-04T14:30:17.186Z,99832.00
2019-04-04T14:32:46.700Z,99851.00
2019-04-04T14:35:16.580Z,99852.00
2019-04-04T14:37:46.231Z,99849.00
2019-04-04T14:40:16.024Z,99852.00
2019-04-04T14:42:45.945Z,99853.00
2019-04-04T14:45:15.696Z,99855.00
2019-04-04T14:47:45.351Z,99855.00
2019-04-04T14:50:15.096Z,99863.00
2019-04-04T14:52:44.636Z,99863.00
2019-04-04T14:55:14.322Z,99861.00
2019-04-04T14:57:43.896Z,99878.00
2019-04-04T15:00:15.874Z,99864.00
2019-04-04T15:02:45.550Z,99851.00
2019-04-04T15:05:15.245Z,99837.00
2019-04-04T15:07:44.699Z,99844.00
2019-04-04T15:10:14.332Z,99844.00
2019-04-04T15:12:43.839Z,99841.00
2019-04-04T15:15:13.935Z,99856.00
2019-04-04T15:17:43.863Z,99861.00
2019-04-04T15:20:13.892Z,99857.00
2019-04-04T15:22:43.328Z,99847.00
2019-04-04T15:25:12.975Z,99844.00
2019-04-04T15:27:42.449Z,99843.00
2019-04-04T15:30:12.420Z,99836.00
2019-04-04T15:32:41.884Z,99836.00
2019-04-04T15:35:11.603Z,99832.00
2019-04-04T15:37:41.092Z,99837.00
2019-04-04T15:40:11.186Z,99839.00
2019-04-04T15:42:42.200Z,99841.00
2019-04-04T15:45:11.949Z,99847.00
2019-04-04T15:47:41.469Z,99856.00
2019-04-04T15:50:11.257Z,99870.00
2019-04-04T15:52:40.815Z,99873.00
2019-04-04T15:55:10.598Z,99880.00
2019-04-04T15:57:40.139Z,99882.00
2019-04-04T16:00:10.629Z,99889.00
2019-04-04T16:02:40.130Z,99895.00
2019-04-04T16:05:10.561Z,99897.00
2019-04-04T16:07:40.249Z,99901.00
2019-04-04T16:10:09.813Z,99908.00
2019-04-04T16:12:39.274Z,99914.00
2019-04-04T16:15:09.097Z,99915.00
2019-04-04T16:17:38.665Z,99925.00
2019-04-04T16:20:10.433Z,99929.00
2019-04-04T16:22:39.936Z,99924.00
2019-04-04T16:25:09.694Z,99932.00
2019-04-04T16:27:39.156Z,99927.00
2019-04-04T16:30:09.758Z,99927.00
2019-04-04T16:32:39.206Z,99919.00
2019-04-04T16:35:09.140Z,99918.00
2019-04-04T16:37:38.694Z,99933.00
2019-04-04T16:40:10.111Z,99932.00
2019-04-04T16:42:39.561Z,99940.00
2019-04-04T16:45:09.620Z,99939.00
2019-04-04T16:47:39.190Z,99928.00
2019-04-04T16:50:09.070Z,99925.00
2019-04-04T16:52:38.836Z,99920.00
2019-04-04T16:55:11.341Z,99923.00
2019-04-04T16:57:43.339Z,99926.00
2019-04-04T17:00:14.351Z,99932.00
2019-04-04T17:02:43.903Z,99947.00
2019-04-04T17:05:14.091Z,99948.00
2019-04-04T17:07:43.834Z,99943.00
2019-04-04T17:10:13.676Z,99932.00
2019-04-04T17:12:43.128Z,99946.00
2019-04-04T17:15:12.949Z,99945.00
2019-04-04T17:17:42.404Z,99964.00
2019-04-04T17:20:13.362Z,99971.00
2019-04-04T17:22:42.863Z,99972.00
2019-04-04T17:25:12.684Z,99970.00
2019-04-04T17:27:42.151Z,99980.00
2019-04-04T17:30:12.847Z,99978.00
2019-04-04T17:32:42.421Z,99972.00
2019-04-04T17:35:12.151Z,99974.00
2019-04-04T17:37:41.612Z,99989.00
2019-04-04T17:40:12.066Z,99983.00
2019-04-04T17:42:41.757Z,100003.00
2019-04-04T17:45:12.551Z,100005.00
2019-04-04T17:47:42.101Z,100006.00
2019-04-04T17:50:14.836Z,100000.00
2019-04-04T17:52:45.851Z,100004.00
2019-04-04T17:55:16.269Z,99995.00
2019-04-04T17:57:45.801Z,100004.00
2019-04-04T18:00:16.907Z,100001.00
2019-04-04T18:02:46.514Z,100000.00
2019-04-04T18:05:16.982Z,100000.00
2019-04-04T18:07:46.537Z,100012.00
2019-04-04T18:10:17.522Z,100011.00
2019-04-04T18:12:47.109Z,100012.00
2019-04-04T18:15:16.947Z,100013.00
2019-04-04T18:17:46.529Z,100018.00
2019-04-04T18:20:16.903Z,100010.00
2019-04-04T18:22:46.535Z,100015.00
2019-04-04T18:25:16.256Z,100017.00
2019-04-04T18:27:45.772Z,100017.00
2019-04-04T18:30:15.888Z,100014.00
2019-04-04T18:32:45.348Z,100025.00
2019-04-04T18:35:15.136Z,100034.00
2019-04-04T18:37:44.800Z,100046.00
2019-04-04T18:40:14.373Z,100050.00
2019-04-04T18:42:53.235Z,100061.00
2019-04-04T18:45:15.560Z,100064.00
2019-04-04T18:47:45.172Z,100066.00
2019-04-04T18:50:15.829Z,100073.00
2019-04-04T18:52:45.340Z,100082.00
2019-04-04T18:55:20.055Z,100081.00
2019-04-04T18:57:47.505Z,100080.00
2019-04-04T19:00:17.807Z,100093.00
2019-04-04T19:02:47.475Z,100094.00
2019-04-04T19:05:17.391Z,100086.00
2019-04-04T19:07:46.945Z,100073.00
2019-04-04T19:10:17.939Z,100066.00
2019-04-04T19:12:47.532Z,100084.00
2019-04-04T19:15:17.311Z,100087.00
2019-04-04T19:17:47.018Z,100086.00
2019-04-04T19:20:17.338Z,100085.00
2019-04-04T19:22:46.789Z,100084.00
2019-04-04T19:25:16.597Z,100083.00
2019-04-04T19:27:46.302Z,100092.00
2019-04-04T19:30:17.979Z,100088.00
2019-04-04T19:32:47.589Z,100082.00
2019-04-04T19:35:18.009Z,100089.00
2019-04-04T19:37:59.426Z,100099.00
2019-04-04T19:40:19.050Z,100091.00
2019-04-04T19:42:48.619Z,100100.00
2019-04-04T19:45:21.268Z,100107.00
2019-04-04T19:47:50.404Z,100099.00
2019-04-04T19:50:19.904Z,100092.00
2019-04-04T19:52:49.367Z,100083.00
2019-04-04T19:55:19.285Z,100089.00
2019-04-04T19:57:48.932Z,100087.00
2019-04-04T20:00:19.962Z,100092.00
2019-04-04T20:02:49.534Z,100096.00
2019-04-04T20:05:19.221Z,100101.00
2019-04-04T20:07:48.692Z,100092.00
2019-04-04T20:10:18.401Z,100102.00
2019-04-04T20:12:47.575Z,100111.00
2019-04-04T20:15:17.255Z,100108.00
2019-04-04T20:17:46.753Z,100113.00
2019-04-04T20:20:17.325Z,100113.00
2019-04-04T20:22:46.804Z,100103.00
2019-04-04T20:25:16.350Z,100109.00
2019-04-04T20:27:54.439Z,100116.00
2019-04-04T20:30:18.631Z,100121.00
2019-04-04T20:32:48.127Z,100119.00
2019-04-04T20:35:17.631Z,100113.00
2019-04-04T20:37:47.134Z,100114.00
2019-04-04T20:40:16.672Z,100124.00
2019-04-04T20:42:46.569Z,100126.00
2019-04-04T20:45:16.354Z,100123.00
2019-04-04T20:47:46.066Z,100119.00
2019-04-04T20:50:15.576Z,100117.00
2019-04-04T20:52:45.123Z,100119.00
2019-04-04T20:55:14.767Z,100122.00
2019-04-04T20:57:44.291Z,100114.00
2019-04-04T21:00:14.402Z,100119.00
2019-04-04T21:02:44.000Z,100119.00
2019-04-04T21:05:13.636Z,100120.00
2019-04-04T21:07:43.663Z,100122.00
2019-04-04T21:10:13.552Z,100123.00
2019-04-04T21:12:43.001Z,100127.00
2019-04-04T21:15:12.695Z,100128.00
2019-04-04T21:17:42.162Z,100134.00
2019-04-04T21:20:12.804Z,100142.00
2019-04-04T21:22:42.368Z,100142.00
2019-04-04T21:25:14.536Z,100143.00
2019-04-04T21:27:45.973Z,100146.00
2019-04-04T21:30:15.714Z,100139.00
2019-04-04T21:32:45.165Z,100143.00
2019-04-04T21:35:14.692Z,100136.00
2019-04-04T21:37:44.175Z,100139.00
2019-04-04T21:40:15.307Z,100146.00
2019-04-04T21:42:44.782Z,100157.00
2019-04-04T21:45:16.676Z,100154.00
2019-04-04T21:47:46.133Z,100163.00
2019-04-04T21:50:15.814Z,100155.00
2019-04-04T21:52:45.352Z,100163.00
2019-04-04T21:55:14.928Z,100160.00
2019-04-04T21:57:44.494Z,100170.00
2019-04-04T22:00:14.960Z,100165.00
2019-04-04T22:02:44.417Z,100165.00
2019-04-04T22:05:14.065Z,100165.00
2019-04-04T22:07:43.598Z,100170.00
2019-04-04T22:10:13.497Z,100176.00
2019-04-04T22:12:43.656Z,100177.00
2019-04-04T22:15:13.389Z,100186.00
2019-04-04T22:17:42.925Z,100184.00
2019-04-04T22:20:12.661Z,100172.00
2019-04-04T22:22:42.203Z,100163.00
2019-04-04T22:25:11.898Z,100162.00
2019-04-04T22:27:41.464Z,100169.00
2019-04-04T22:30:14.473Z,100180.00
2019-04-04T22:32:43.971Z,100181.00
2019-04-04T22:35:13.661Z,100166.00
2019-04-04T22:37:43.198Z,100168.00
2019-04-04T22:40:12.984Z,100170.00
2019-04-04T22:42:42.629Z,100169.00
2019-04-04T22:45:12.486Z,100171.00
2019-04-04T22:47:42.011Z,100171.00
2019-04-04T22:50:11.723Z,100176.00
2019-04-04T22:52:41.201Z,100176.00
2019-04-04T22:55:11.099Z,100174.00
2019-04-04T22:57:40.604Z,100171.00
2019-04-04T23:00:11.385Z,100178.00
2019-04-04T23:02:40.964Z,100171.00
2019-04-04T23:05:10.488Z,100167.00
2019-04-04T23:07:39.937Z,100172.00
2019-04-04T23:10:10.234Z,100165.00
2019-04-04T23:12:39.759Z,100163.00
2019-04-04T23:15:11.083Z,100163.00
2019-04-04T23:17:40.543Z,100166.00
2019-04-04T23:20:11.002Z,100175.00
2019-04-04T23:22:52.230Z,100181.00
2019-04-04T23:25:11.972Z,100184.00
2019-04-04T23:27:41.516Z,100188.00
2019-04-04T23:30:12.881Z,100188.00
2019-04-04T23:32:42.383Z,100197.00
2019-04-04T23:35:11.977Z,100188.00
2019-04-04T23:37:41.441Z,100196.00
2019-04-04T23:40:12.691Z,100193.00
2019-04-04T23:42:42.272Z,100194.00
2019-04-04T23:45:12.026Z,100193.00
2019-04-04T23:47:43.192Z,100202.00
2019-04-04T23:50:13.252Z,100198.00
2019-04-04T23:52:42.880Z,100207.00
2019-04-04T23:55:12.552Z,100212.00
2019-04-04T23:57:42.029Z,100224.00
